createdAt,value
2023-01-06T00:04:47.497Z,70.34
2023-01-06T00:09:49.744Z,70.19
2023-01-06T00:14:51.965Z,70.14
2023-01-06T00:19:54.391Z,69.77
2023-01-06T00:24:56.716Z,69.92
2023-01-06T00:29:59.199Z,69.87
2023-01-06T00:35:01.792Z,70.14
2023-01-06T00:40:05.930Z,70.02
2023-01-06T00:45:08.670Z,69.97
2023-01-06T00:50:11.081Z,70.21
2023-01-06T00:55:15.003Z,69.96
2023-01-06T01:00:18.155Z,69.95
2023-01-06T01:05:20.510Z,70.08
2023-01-06T01:10:25.115Z,70.00
2023-01-06T01:15:27.803Z,69.91
2023-01-06T01:20:30.119Z,69.82
2023-01-06T01:25:35.366Z,69.93
2023-01-06T01:30:37.654Z,69.94
2023-01-06T01:35:39.917Z,70.02
2023-01-06T01:40:50.523Z,69.85
2023-01-06T01:45:54.524Z,70.08
2023-01-06T01:50:59.015Z,69.79
2023-01-06T01:56:06.072Z,69.81
2023-01-06T02:01:10.614Z,69.77
2023-01-06T02:06:21.299Z,69.68
2023-01-06T02:11:26.588Z,69.83
2023-01-06T02:17:10.345Z,69.73
2023-01-06T02:22:30.780Z,69.81
2023-01-06T02:27:48.713Z,69.66
2023-01-06T02:33:01.772Z,69.75
2023-01-06T02:38:27.446Z,69.80
2023-01-06T02:43:56.390Z,69.61
2023-01-06T02:49:25.248Z,69.80
2023-01-06T02:54:39.719Z,69.58
2023-01-06T02:59:49.664Z,69.64
2023-01-06T03:04:53.361Z,69.69
2023-01-06T03:09:56.173Z,69.67
2023-01-06T03:15:00.281Z,69.50
2023-01-06T03:20:06.019Z,69.66
2023-01-06T03:25:10.230Z,69.54
2023-01-06T03:30:15.110Z,69.45
2023-01-06T03:35:48.657Z,69.63
2023-01-06T03:40:58.076Z,69.45
2023-01-06T03:46:17.759Z,69.48
2023-01-06T03:51:45.636Z,69.33
2023-01-06T03:56:52.941Z,69.67
2023-01-06T04:01:55.952Z,69.31
2023-01-06T04:06:58.617Z,69.47
2023-01-06T04:12:20.082Z,69.37
2023-01-06T04:17:22.814Z,69.42
2023-01-06T04:22:25.333Z,69.35
2023-01-06T04:27:27.829Z,69.33
2023-01-06T04:32:30.248Z,69.28
2023-01-06T04:37:35.229Z,69.29
2023-01-06T04:42:55.866Z,69.24
2023-01-06T04:47:58.156Z,69.42
2023-01-06T04:53:00.467Z,69.24
2023-01-06T04:58:02.807Z,69.26
2023-01-06T05:03:05.070Z,69.40
2023-01-06T05:08:07.384Z,69.43
2023-01-06T05:13:09.740Z,69.38
2023-01-06T05:18:12.049Z,69.39
2023-01-06T05:23:15.164Z,69.26
2023-01-06T05:28:17.562Z,69.05
2023-01-06T05:33:19.916Z,69.35
2023-01-06T05:38:22.273Z,69.29
2023-01-06T05:43:25.484Z,69.08
2023-01-06T05:48:28.200Z,69.09
2023-01-06T05:53:35.439Z,69.21
2023-01-06T05:58:41.327Z,69.13
2023-01-06T06:03:43.763Z,69.13
2023-01-06T06:08:46.168Z,68.81
2023-01-06T06:13:50.371Z,69.08
2023-01-06T06:18:54.440Z,68.97
2023-01-06T06:23:58.224Z,69.11
2023-01-06T06:29:00.482Z,68.93
2023-01-06T06:34:04.181Z,69.09
2023-01-06T06:39:06.407Z,68.98
2023-01-06T06:44:09.711Z,69.11
2023-01-06T06:49:12.135Z,68.82
2023-01-06T06:54:16.179Z,68.85
2023-01-06T06:59:18.459Z,68.91
2023-01-06T07:04:20.818Z,68.89
2023-01-06T07:09:23.172Z,68.74
2023-01-06T07:14:25.404Z,68.72
2023-01-06T07:19:27.783Z,68.67
2023-01-06T07:24:30.074Z,68.74
2023-01-06T07:29:32.788Z,68.74
2023-01-06T07:34:35.332Z,68.95
2023-01-06T07:39:37.558Z,69.17
2023-01-06T07:44:39.825Z,69.56
2023-01-06T07:49:42.039Z,69.03
2023-01-06T07:54:44.409Z,68.18
2023-01-06T07:59:46.702Z,67.33
2023-01-06T08:04:49.520Z,66.67
2023-01-06T08:09:54.565Z,66.77
2023-01-06T08:14:56.813Z,67.03
2023-01-06T08:19:59.129Z,67.46
2023-01-06T08:25:01.497Z,67.91
2023-01-06T08:30:04.557Z,68.00
2023-01-06T08:35:07.272Z,68.13
2023-01-06T08:40:10.049Z,68.36
2023-01-06T08:45:13.452Z,68.25
2023-01-06T08:50:15.783Z,68.27
2023-01-06T08:55:18.047Z,68.56
2023-01-06T09:00:20.408Z,68.45
2023-01-06T09:05:23.006Z,68.51
2023-01-06T09:10:25.517Z,68.63
2023-01-06T09:15:27.781Z,68.67
2023-01-06T09:20:30.211Z,68.38
2023-01-06T09:25:32.541Z,68.43
2023-01-06T09:30:34.837Z,68.62
2023-01-06T09:35:37.191Z,68.64
2023-01-06T09:41:18.208Z,68.57
2023-01-06T09:46:25.411Z,68.50
2023-01-06T09:51:28.381Z,68.64
2023-01-06T09:56:33.821Z,68.76
2023-01-06T10:01:41.789Z,68.24
2023-01-06T10:07:07.541Z,68.57
2023-01-06T10:12:34.720Z,68.28
2023-01-06T10:18:19.001Z,68.51
2023-01-06T10:23:39.688Z,68.72
2023-01-06T10:28:53.631Z,68.61
2023-01-06T10:33:57.460Z,68.74
2023-01-06T10:39:06.473Z,68.38
2023-01-06T10:44:11.418Z,68.62
2023-01-06T10:49:19.158Z,68.50
2023-01-06T10:54:26.304Z,68.45
2023-01-06T10:59:29.684Z,68.46
2023-01-06T11:04:31.995Z,68.59
2023-01-06T11:09:37.202Z,68.73
2023-01-06T11:14:39.852Z,68.68
2023-01-06T11:19:44.770Z,68.75
2023-01-06T11:24:54.744Z,68.59
2023-01-06T11:29:57.038Z,68.63
2023-01-06T11:35:00.604Z,68.82
2023-01-06T11:40:11.256Z,68.52
2023-01-06T11:45:35.505Z,68.66
2023-01-06T11:50:37.947Z,68.69
2023-01-06T11:55:40.408Z,68.51
2023-01-06T12:00:53.299Z,68.61
2023-01-06T12:06:02.207Z,68.81
2023-01-06T12:11:17.974Z,68.62
2023-01-06T12:16:27.277Z,68.67
2023-01-06T12:21:34.826Z,68.80
2023-01-06T12:26:37.251Z,68.63
2023-01-06T12:31:55.072Z,68.82
2023-01-06T12:37:04.417Z,68.66
2023-01-06T12:42:21.495Z,68.51
2023-01-06T12:47:44.926Z,68.54
2023-01-06T12:53:01.235Z,68.75
2023-01-06T12:58:25.272Z,68.74
2023-01-06T13:03:52.781Z,68.72
2023-01-06T13:09:13.375Z,68.86
2023-01-06T13:14:18.541Z,68.98
2023-01-06T13:19:43.993Z,68.77
2023-01-06T13:25:32.283Z,68.80
2023-01-06T13:30:51.052Z,68.80
2023-01-06T13:36:24.303Z,68.83
2023-01-06T13:41:30.898Z,68.98
2023-01-06T13:46:34.734Z,68.97
2023-01-06T13:51:40.196Z,68.91
2023-01-06T13:56:42.652Z,68.92
2023-01-06T14:01:45.156Z,68.75
2023-01-06T14:06:47.877Z,68.76
2023-01-06T14:11:50.460Z,68.63
2023-01-06T14:16:54.826Z,68.81
2023-01-06T14:22:20.272Z,68.68
2023-01-06T14:27:44.437Z,68.97
2023-01-06T14:32:46.742Z,68.79
2023-01-06T14:37:56.851Z,68.99
2023-01-06T14:43:02.750Z,68.94
2023-01-06T14:48:07.107Z,68.66
2023-01-06T14:53:34.973Z,68.63
2023-01-06T14:58:37.767Z,68.72
2023-01-06T15:03:40.285Z,68.61
2023-01-06T15:08:42.782Z,68.84
2023-01-06T15:13:45.882Z,68.81
2023-01-06T15:18:48.371Z,68.81
2023-01-06T15:23:53.700Z,68.86
2023-01-06T15:29:01.628Z,68.82
2023-01-06T15:34:18.567Z,68.82
2023-01-06T15:39:31.619Z,68.84
2023-01-06T15:44:38.581Z,68.70
2023-01-06T15:49:44.376Z,68.71
2023-01-06T15:54:49.621Z,68.79
2023-01-06T16:00:18.900Z,68.61
2023-01-06T16:05:39.356Z,68.67
2023-01-06T16:10:44.615Z,68.60
2023-01-06T16:15:47.088Z,68.68
2023-01-06T16:20:52.060Z,68.42
2023-01-06T16:26:12.161Z,68.59
2023-01-06T16:31:16.073Z,68.61
2023-01-06T16:36:18.683Z,68.74
2023-01-06T16:41:26.612Z,68.56
2023-01-06T16:46:29.214Z,68.54
2023-01-06T16:51:31.811Z,68.64
2023-01-06T16:56:36.919Z,68.39
2023-01-06T17:01:41.595Z,68.74
2023-01-06T17:06:46.257Z,68.61
2023-01-06T17:11:53.237Z,68.50
2023-01-06T17:16:56.038Z,68.67
2023-01-06T17:22:06.779Z,68.67
2023-01-06T17:27:26.844Z,68.66
2023-01-06T17:32:39.250Z,68.64
2023-01-06T17:37:41.632Z,68.64
2023-01-06T17:42:44.286Z,68.62
2023-01-06T17:47:50.507Z,68.54
2023-01-06T17:53:35.616Z,68.48
2023-01-06T17:58:40.488Z,68.57
2023-01-06T18:03:43.939Z,68.54
2023-01-06T18:08:48.730Z,68.44
2023-01-06T18:13:51.995Z,68.54
2023-01-06T18:18:57.850Z,68.44
2023-01-06T18:24:00.471Z,68.46
2023-01-06T18:29:19.262Z,68.60
2023-01-06T18:34:29.421Z,68.46
2023-01-06T18:39:40.062Z,68.43
2023-01-06T18:44:46.387Z,68.52
2023-01-06T18:49:49.531Z,68.47
2023-01-06T18:54:52.002Z,68.59
2023-01-06T18:59:55.143Z,68.53
2023-01-06T19:04:57.735Z,68.50
2023-01-06T19:10:00.160Z,68.56
2023-01-06T19:15:19.313Z,68.54
2023-01-06T19:20:29.030Z,68.24
2023-01-06T19:25:33.609Z,68.59
2023-01-06T19:30:54.114Z,68.47
2023-01-06T19:36:11.398Z,68.29
2023-01-06T19:41:33.876Z,68.47
2023-01-06T19:46:39.052Z,68.28
2023-01-06T19:51:41.668Z,68.31
2023-01-06T19:56:43.950Z,68.15
2023-01-06T20:01:46.580Z,68.05
2023-01-06T20:06:49.308Z,68.07
2023-01-06T20:11:52.109Z,68.13
2023-01-06T20:16:54.675Z,68.32
2023-01-06T20:21:57.185Z,68.10
2023-01-06T20:26:59.500Z,68.03
2023-01-06T20:32:02.287Z,68.07
2023-01-06T20:37:04.729Z,68.09
2023-01-06T20:42:07.441Z,67.96
2023-01-06T20:47:09.939Z,67.95
2023-01-06T20:52:15.944Z,68.01
2023-01-06T20:57:27.421Z,68.09
2023-01-06T21:02:32.898Z,68.06
2023-01-06T21:07:36.428Z,67.95
2023-01-06T21:12:39.290Z,67.98
2023-01-06T21:17:41.854Z,68.10
2023-01-06T21:22:44.182Z,68.03
2023-01-06T21:27:50.694Z,68.02
2023-01-06T21:32:55.588Z,67.84
2023-01-06T21:37:57.930Z,67.86
2023-01-06T21:43:09.125Z,67.76
2023-01-06T21:48:14.265Z,67.91
2023-01-06T21:53:19.719Z,68.00
2023-01-06T21:58:21.911Z,67.93
2023-01-06T22:03:24.242Z,67.96
2023-01-06T22:08:26.649Z,68.04
2023-01-06T22:13:29.644Z,67.85
2023-01-06T22:18:32.746Z,67.82
2023-01-06T22:23:37.131Z,67.81
2023-01-06T22:28:39.633Z,67.61
2023-01-06T22:33:41.906Z,67.62
2023-01-06T22:38:47.140Z,67.64
2023-01-06T22:43:50.663Z,67.86
2023-01-06T22:48:59.314Z,67.80
2023-01-06T22:54:01.558Z,68.04
2023-01-06T22:59:04.432Z,67.71
2023-01-06T23:04:09.420Z,67.76
2023-01-06T23:09:11.769Z,67.77
2023-01-06T23:14:14.147Z,67.74
2023-01-06T23:19:18.593Z,67.70
2023-01-06T23:24:35.765Z,67.63
2023-01-06T23:29:38.020Z,67.62
2023-01-06T23:34:40.243Z,67.48
2023-01-06T23:39:42.642Z,67.55
2023-01-06T23:44:47.470Z,67.50
2023-01-06T23:49:49.777Z,67.52
2023-01-06T23:54:51.967Z,67.58
2023-01-06T23:59:58.940Z,67.62
